createdAt,value
2018-04-20T00:05:32.172Z,23.57
2018-04-20T00:11:36.537Z,24.70
2018-04-20T00:17:40.921Z,25.13
2018-04-20T00:23:45.366Z,32.50
2018-04-20T00:29:49.823Z,26.00
2018-04-20T00:35:54.194Z,29.97
2018-04-20T00:41:59.414Z,31.30
2018-04-20T00:48:03.801Z,30.80
2018-04-20T00:54:25.014Z,30.43
2018-04-20T01:00:29.417Z,35.47
2018-04-20T01:06:33.842Z,32.40
2018-04-20T01:12:38.239Z,44.60
2018-04-20T01:18:42.656Z,39.27
2018-04-20T01:24:47.142Z,38.60
2018-04-20T01:30:51.546Z,40.43
2018-04-20T01:36:55.906Z,38.93
2018-04-20T01:43:00.374Z,34.40
2018-04-20T01:49:04.738Z,39.07
2018-04-20T01:55:09.114Z,36.83
2018-04-20T02:01:13.506Z,36.17
2018-04-20T02:07:17.908Z,38.20
2018-04-20T02:13:22.364Z,36.10
2018-04-20T02:19:26.760Z,43.80
2018-04-20T02:25:31.201Z,36.47
2018-04-20T02:31:35.609Z,40.20
2018-04-20T02:37:40.437Z,40.47
2018-04-20T02:43:44.841Z,34.47
2018-04-20T02:49:49.224Z,39.30
2018-04-20T02:55:53.684Z,38.00
2018-04-20T03:01:58.064Z,41.53
2018-04-20T03:08:02.553Z,41.43
2018-04-20T03:14:06.944Z,38.20
2018-04-20T03:20:11.744Z,35.07
2018-04-20T03:26:17.503Z,39.30
2018-04-20T03:32:21.872Z,36.97
2018-04-20T03:38:26.239Z,40.00
2018-04-20T03:44:30.633Z,40.60
2018-04-20T03:50:35.025Z,39.53
2018-04-20T03:56:39.436Z,32.70
2018-04-20T04:02:43.921Z,39.80
2018-04-20T04:08:48.297Z,39.37
2018-04-20T04:14:53.451Z,44.37
2018-04-20T04:21:15.689Z,40.70
2018-04-20T04:34:20.738Z,39.37
2018-04-20T04:40:25.179Z,38.00
2018-04-20T04:46:29.642Z,34.23
2018-04-20T04:52:34.054Z,32.57
2018-04-20T04:58:38.509Z,37.67
2018-04-20T05:04:42.961Z,32.07
2018-04-20T05:10:47.339Z,29.97
2018-04-20T05:16:51.741Z,30.70
2018-04-20T05:22:56.191Z,25.33
2018-04-20T05:29:00.835Z,27.57
2018-04-20T05:35:05.249Z,26.97
2018-04-20T05:41:09.987Z,32.13
2018-04-20T05:47:14.504Z,31.73
2018-04-20T05:53:19.668Z,33.00
2018-04-20T05:59:25.560Z,32.77
2018-04-20T06:05:29.938Z,31.43
2018-04-20T06:11:34.313Z,42.53
2018-04-20T06:17:38.723Z,28.40
2018-04-20T06:23:43.874Z,32.87
2018-04-20T06:29:48.263Z,32.10
2018-04-20T06:35:52.628Z,33.07
2018-04-20T06:41:57.089Z,34.60
2018-04-20T06:48:01.462Z,35.40
2018-04-20T06:54:05.889Z,31.73
2018-04-20T07:00:11.917Z,31.17
2018-04-20T07:06:16.360Z,38.20
2018-04-20T07:12:21.487Z,31.20
2018-04-20T07:18:25.861Z,29.93
2018-04-20T07:24:30.228Z,25.30
2018-04-20T07:30:35.675Z,29.87
2018-04-20T07:36:40.051Z,28.77
2018-04-20T07:42:44.517Z,31.47
2018-04-20T07:48:48.896Z,32.33
2018-04-20T07:54:53.273Z,32.27
2018-04-20T08:00:57.786Z,26.93
2018-04-20T08:07:02.305Z,26.77
2018-04-20T08:13:06.682Z,26.83
2018-04-20T08:19:11.216Z,32.00
2018-04-20T08:25:16.465Z,26.87
2018-04-20T08:31:21.128Z,20.60
2018-04-20T08:37:25.555Z,22.10
2018-04-20T08:43:29.928Z,25.10
2018-04-20T08:49:34.348Z,22.00
2018-04-20T08:55:39.925Z,23.07
2018-04-20T09:01:44.479Z,26.90
2018-04-20T09:07:48.929Z,24.87
2018-04-20T09:13:53.289Z,24.10
2018-04-20T09:19:57.687Z,28.57
2018-04-20T09:32:13.427Z,24.90
2018-04-20T09:38:19.400Z,25.37
2018-04-20T09:44:23.871Z,20.97
2018-04-20T09:50:28.244Z,23.60
2018-04-20T09:56:32.742Z,23.63
2018-04-20T10:02:42.718Z,16.93
2018-04-20T10:08:47.231Z,19.53
2018-04-20T10:14:51.601Z,22.20
2018-04-20T10:20:55.965Z,19.93
2018-04-20T10:27:00.441Z,20.27
2018-04-20T10:33:04.820Z,16.73
2018-04-20T10:39:09.912Z,19.30
2018-04-20T10:45:14.301Z,20.00
2018-04-20T10:51:18.674Z,13.83
2018-04-20T10:57:23.862Z,11.23
2018-04-20T11:03:28.275Z,11.23
2018-04-20T11:09:32.622Z,16.33
2018-04-20T11:15:37.109Z,10.20
2018-04-20T11:21:41.725Z,11.70
2018-04-20T11:27:46.883Z,9.67
2018-04-20T11:33:51.288Z,11.10
2018-04-20T11:39:55.808Z,9.23
2018-04-20T11:46:00.369Z,11.60
2018-04-20T11:52:05.544Z,9.70
2018-04-20T11:58:10.435Z,10.23
2018-04-20T12:04:14.872Z,9.63
2018-04-20T12:10:19.243Z,5.40
2018-04-20T12:16:23.624Z,5.93
2018-04-20T12:22:28.001Z,12.50
2018-04-20T12:28:32.393Z,8.87
2018-04-20T12:34:36.794Z,5.60
2018-04-20T12:40:42.183Z,4.03
2018-04-20T12:46:46.566Z,8.30
2018-04-20T12:52:51.816Z,9.70
2018-04-20T12:58:56.248Z,5.43
2018-04-20T13:05:01.376Z,8.43
2018-04-20T13:11:05.726Z,6.07
2018-04-20T13:17:10.165Z,6.27
2018-04-20T13:23:14.547Z,6.03
2018-04-20T13:29:18.917Z,5.17
2018-04-20T13:35:23.296Z,7.80
2018-04-20T13:41:27.687Z,5.87
2018-04-20T13:47:32.823Z,8.20
2018-04-20T13:53:37.188Z,5.00
2018-04-20T13:59:41.567Z,3.17
2018-04-20T14:05:46.009Z,7.40
2018-04-20T14:11:51.159Z,5.43
2018-04-20T14:17:55.545Z,6.13
2018-04-20T14:24:00.023Z,5.83
2018-04-20T14:30:04.450Z,3.00
2018-04-20T14:36:08.807Z,3.90
2018-04-20T14:42:13.425Z,5.10
2018-04-20T14:48:17.898Z,4.20
2018-04-20T14:54:22.266Z,5.93
2018-04-20T15:00:26.630Z,5.03
2018-04-20T15:06:31.636Z,5.80
2018-04-20T15:12:36.463Z,3.47
2018-04-20T15:18:40.945Z,5.00
2018-04-20T15:24:46.187Z,5.43
2018-04-20T15:30:50.483Z,5.17
2018-04-20T15:36:54.866Z,6.17
2018-04-20T15:42:59.303Z,5.23
2018-04-20T15:49:03.692Z,13.00
2018-04-20T15:55:08.074Z,7.20
2018-04-20T16:01:12.545Z,6.00
2018-04-20T16:07:16.953Z,6.17
2018-04-20T16:13:21.311Z,6.83
2018-04-20T16:19:25.766Z,6.13
2018-04-20T16:25:30.121Z,5.30
2018-04-20T16:31:35.231Z,5.70
2018-04-20T16:37:40.222Z,4.03
2018-04-20T16:43:44.720Z,6.93
2018-04-20T16:49:49.077Z,22.47
2018-04-20T16:55:53.694Z,17.37
2018-04-20T17:01:58.078Z,4.47
2018-04-20T17:08:02.430Z,3.67
2018-04-20T17:14:06.804Z,9.80
2018-04-20T17:20:11.354Z,4.70
2018-04-20T17:26:15.753Z,9.37
2018-04-20T17:32:20.900Z,8.53
2018-04-20T17:38:26.030Z,10.33
2018-04-20T17:44:30.480Z,6.70
2018-04-20T17:50:35.654Z,10.47
2018-04-20T17:56:40.780Z,4.50
2018-04-20T18:02:45.192Z,9.03
2018-04-20T18:08:49.564Z,9.13
2018-04-20T18:14:53.949Z,9.40
2018-04-20T18:20:58.316Z,5.10
2018-04-20T18:27:02.691Z,9.20
2018-04-20T18:33:07.123Z,6.43
2018-04-20T18:39:11.504Z,6.63
2018-04-20T18:45:15.954Z,5.60
2018-04-20T18:51:21.163Z,11.07
2018-04-20T18:57:26.396Z,10.57
2018-04-20T19:03:30.768Z,6.57
2018-04-20T19:09:35.212Z,8.40
2018-04-20T19:15:39.652Z,5.60
2018-04-20T19:21:44.048Z,7.03
2018-04-20T19:27:49.179Z,8.37
2018-04-20T19:33:53.533Z,11.63
2018-04-20T19:39:57.913Z,11.50
2018-04-20T19:46:02.279Z,13.00
2018-04-20T19:52:06.656Z,11.77
2018-04-20T19:58:11.119Z,19.00
2018-04-20T20:04:16.242Z,14.10
2018-04-20T20:10:20.640Z,14.77
2018-04-20T20:16:25.000Z,14.87
2018-04-20T20:22:29.378Z,16.33
2018-04-20T20:28:33.772Z,17.00
2018-04-20T20:34:38.145Z,15.70
2018-04-20T20:40:42.527Z,17.70
2018-04-20T20:46:46.879Z,15.73
2018-04-20T20:52:51.348Z,16.40
2018-04-20T20:58:55.796Z,13.30
2018-04-20T21:05:00.195Z,14.77
2018-04-20T21:11:04.708Z,16.93
2018-04-20T21:17:09.112Z,10.97
2018-04-20T21:23:13.505Z,12.50
2018-04-20T21:29:17.890Z,14.10
2018-04-20T21:35:22.267Z,18.27
2018-04-20T21:41:26.634Z,17.27
2018-04-20T21:47:30.989Z,11.97
2018-04-20T21:53:36.213Z,14.50
2018-04-20T21:59:40.619Z,12.17
2018-04-20T22:05:44.991Z,14.73
2018-04-20T22:11:49.446Z,13.17
2018-04-20T22:17:53.835Z,14.93
2018-04-20T22:23:58.275Z,9.97
2018-04-20T22:30:02.657Z,11.37
2018-04-20T22:36:07.154Z,15.90
2018-04-20T22:42:11.630Z,17.37
2018-04-20T22:48:16.069Z,18.07
2018-04-20T22:54:21.423Z,14.53
2018-04-20T23:00:25.865Z,15.20
2018-04-20T23:06:31.002Z,18.17
2018-04-20T23:12:35.373Z,16.83
2018-04-20T23:18:39.828Z,17.07
2018-04-20T23:24:44.213Z,20.20
2018-04-20T23:30:48.619Z,18.70
2018-04-20T23:36:53.020Z,19.37
2018-04-20T23:42:58.146Z,21.33
2018-04-20T23:49:02.591Z,21.93
2018-04-20T23:55:06.941Z,18.13
